createdAt,value
2023-02-23T00:01:53.169Z,8.90
2023-02-23T00:05:55.937Z,8.90
2023-02-23T00:09:58.826Z,8.90
2023-02-23T00:14:03.572Z,8.90
2023-02-23T00:18:06.470Z,9.00
2023-02-23T00:22:09.353Z,9.00
2023-02-23T00:26:13.680Z,9.00
2023-02-23T00:30:18.841Z,9.00
2023-02-23T00:34:23.623Z,9.10
2023-02-23T00:38:26.696Z,9.10
2023-02-23T00:42:32.280Z,9.10
2023-02-23T00:46:36.744Z,9.10
2023-02-23T00:50:41.618Z,9.20
2023-02-23T00:54:44.545Z,9.20
2023-02-23T00:58:47.337Z,9.20
2023-02-23T01:02:51.489Z,9.30
2023-02-23T01:06:54.607Z,9.30
2023-02-23T01:10:57.495Z,9.30
2023-02-23T01:15:00.303Z,9.30
2023-02-23T01:19:05.615Z,9.30
2023-02-23T01:23:08.772Z,9.30
2023-02-23T01:27:11.636Z,9.40
2023-02-23T01:31:15.700Z,9.40
2023-02-23T01:35:20.043Z,9.40
2023-02-23T01:39:23.183Z,9.40
2023-02-23T01:43:26.928Z,9.40
2023-02-23T01:47:30.004Z,9.40
2023-02-23T01:51:35.829Z,9.40
2023-02-23T01:55:38.793Z,9.40
2023-02-23T01:59:43.131Z,9.50
2023-02-23T02:03:48.157Z,9.50
2023-02-23T02:07:58.737Z,9.50
2023-02-23T02:12:02.670Z,9.50
2023-02-23T02:16:16.196Z,9.50
2023-02-23T02:20:33.072Z,9.50
2023-02-23T02:24:52.438Z,9.50
2023-02-23T02:29:12.225Z,9.50
2023-02-23T02:33:45.874Z,9.50
2023-02-23T02:38:01.848Z,9.50
2023-02-23T02:42:10.154Z,9.50
2023-02-23T02:46:14.382Z,9.50
2023-02-23T02:50:22.718Z,9.50
2023-02-23T02:54:28.156Z,9.50
2023-02-23T02:58:30.967Z,9.50
2023-02-23T03:02:52.371Z,9.50
2023-02-23T03:07:17.498Z,9.50
2023-02-23T03:11:39.520Z,9.50
2023-02-23T03:16:04.534Z,9.50
2023-02-23T03:20:30.498Z,9.50
2023-02-23T03:24:54.678Z,9.50
2023-02-23T03:29:18.639Z,9.50
2023-02-23T03:33:44.545Z,9.50
2023-02-23T03:38:07.289Z,9.50
2023-02-23T03:42:31.430Z,9.50
2023-02-23T03:46:53.802Z,9.50
2023-02-23T03:51:15.466Z,9.50
2023-02-23T03:55:37.298Z,9.50
2023-02-23T04:00:02.125Z,9.50
2023-02-23T04:04:26.134Z,9.50
2023-02-23T04:08:49.498Z,9.40
2023-02-23T04:13:13.274Z,9.40
2023-02-23T04:17:21.360Z,9.40
2023-02-23T04:21:25.557Z,9.40
2023-02-23T04:25:28.465Z,9.40
2023-02-23T04:29:31.271Z,9.40
2023-02-23T04:33:34.084Z,9.40
2023-02-23T04:37:38.760Z,9.30
2023-02-23T04:41:41.546Z,9.30
2023-02-23T04:45:45.204Z,9.30
2023-02-23T04:49:48.436Z,9.30
2023-02-23T04:53:52.607Z,9.30
2023-02-23T04:57:59.072Z,9.30
2023-02-23T05:02:02.121Z,9.30
2023-02-23T05:06:05.059Z,9.30
2023-02-23T05:10:10.033Z,9.30
2023-02-23T05:14:12.929Z,9.30
2023-02-23T05:18:15.760Z,9.30
2023-02-23T05:22:18.746Z,9.30
2023-02-23T05:26:22.942Z,9.30
2023-02-23T05:30:26.060Z,9.30
2023-02-23T05:34:29.195Z,9.30
2023-02-23T05:38:31.963Z,9.30
2023-02-23T05:42:36.114Z,9.30
2023-02-23T05:46:38.903Z,9.30
2023-02-23T05:50:41.706Z,9.20
2023-02-23T05:54:45.420Z,9.20
2023-02-23T05:58:49.933Z,9.20
2023-02-23T06:02:54.065Z,9.20
2023-02-23T06:06:56.937Z,9.20
2023-02-23T06:10:59.725Z,9.20
2023-02-23T06:15:03.940Z,9.20
2023-02-23T06:19:06.736Z,9.20
2023-02-23T06:23:10.688Z,9.20
2023-02-23T06:27:14.181Z,9.20
2023-02-23T06:31:18.577Z,9.20
2023-02-23T06:35:21.590Z,9.20
2023-02-23T06:39:24.457Z,9.10
2023-02-23T06:43:27.297Z,9.10
2023-02-23T06:47:31.583Z,9.10
2023-02-23T06:51:34.362Z,9.10
2023-02-23T06:55:37.168Z,9.10
2023-02-23T06:59:39.961Z,9.10
2023-02-23T07:03:44.183Z,9.00
2023-02-23T07:07:46.978Z,9.00
2023-02-23T07:11:49.764Z,9.00
2023-02-23T07:15:57.544Z,9.10
2023-02-23T07:20:01.750Z,9.10
2023-02-23T07:24:06.196Z,9.10
2023-02-23T07:28:09.024Z,9.10
2023-02-23T07:32:11.986Z,9.10
2023-02-23T07:36:17.599Z,9.10
2023-02-23T07:40:20.686Z,9.10
2023-02-23T07:44:23.780Z,9.10
2023-02-23T07:48:26.621Z,9.10
2023-02-23T07:52:31.015Z,9.10
2023-02-23T07:56:34.020Z,9.20
2023-02-23T08:00:38.894Z,9.20
2023-02-23T08:04:43.263Z,9.20
2023-02-23T08:08:47.450Z,9.20
2023-02-23T08:12:50.302Z,9.20
2023-02-23T08:16:53.158Z,9.20
2023-02-23T08:20:59.258Z,9.20
2023-02-23T08:25:05.899Z,9.20
2023-02-23T08:29:08.970Z,9.20
2023-02-23T08:33:11.866Z,9.20
2023-02-23T08:37:14.673Z,9.20
2023-02-23T08:41:19.165Z,9.20
2023-02-23T08:45:22.353Z,9.20
2023-02-23T08:49:25.191Z,9.20
2023-02-23T08:53:29.728Z,9.20
2023-02-23T08:57:34.896Z,9.20
2023-02-23T09:01:38.220Z,9.20
2023-02-23T09:05:41.069Z,9.20
2023-02-23T09:09:44.025Z,9.20
2023-02-23T09:13:48.170Z,9.20
2023-02-23T09:17:51.004Z,9.20
2023-02-23T09:21:53.828Z,9.20
2023-02-23T09:25:56.644Z,9.20
2023-02-23T09:30:00.770Z,9.20
2023-02-23T09:34:03.537Z,9.20
2023-02-23T09:38:07.499Z,9.20
2023-02-23T09:42:15.270Z,9.20
2023-02-23T09:46:27.165Z,9.20
2023-02-23T09:50:31.417Z,9.30
2023-02-23T09:54:35.467Z,9.30
2023-02-23T09:58:38.308Z,9.30
2023-02-23T10:02:49.928Z,9.30
2023-02-23T10:06:55.896Z,9.30
2023-02-23T10:11:04.946Z,9.30
2023-02-23T10:15:12.782Z,9.30
2023-02-23T10:19:22.873Z,9.30
2023-02-23T10:23:31.233Z,9.30
2023-02-23T10:27:38.767Z,9.30
2023-02-23T10:31:43.827Z,9.30
2023-02-23T10:35:48.828Z,9.30
2023-02-23T10:39:52.131Z,9.30
2023-02-23T10:43:55.951Z,9.20
2023-02-23T10:48:01.610Z,9.30
2023-02-23T10:52:07.500Z,9.20
2023-02-23T10:56:12.653Z,9.20
2023-02-23T11:00:32.807Z,9.20
2023-02-23T11:04:35.833Z,9.30
2023-02-23T11:08:41.445Z,9.30
2023-02-23T11:12:45.441Z,9.30
2023-02-23T11:16:48.295Z,9.30
2023-02-23T11:20:52.122Z,9.30
2023-02-23T11:24:56.855Z,9.30
2023-02-23T11:29:01.432Z,9.40
2023-02-23T11:33:10.671Z,9.40
2023-02-23T11:37:20.673Z,9.40
2023-02-23T11:41:26.017Z,9.40
2023-02-23T11:45:33.674Z,9.50
2023-02-23T11:49:39.450Z,9.50
2023-02-23T11:53:45.776Z,9.50
2023-02-23T11:57:50.384Z,9.50
2023-02-23T12:01:54.947Z,9.50
2023-02-23T12:05:59.188Z,9.50
2023-02-23T12:10:06.543Z,9.60
2023-02-23T12:14:13.601Z,9.60
2023-02-23T12:18:24.763Z,9.60
2023-02-23T12:22:31.711Z,9.60
2023-02-23T12:26:35.021Z,9.70
2023-02-23T12:30:43.430Z,9.70
2023-02-23T12:34:48.520Z,9.70
2023-02-23T12:38:55.745Z,9.70
2023-02-23T12:43:01.510Z,9.80
2023-02-23T12:47:10.134Z,9.80
2023-02-23T12:51:19.170Z,9.80
2023-02-23T12:55:29.249Z,9.80
2023-02-23T12:59:46.936Z,9.80
2023-02-23T13:03:56.184Z,9.70
2023-02-23T13:08:13.080Z,9.70
2023-02-23T13:12:22.252Z,9.70
2023-02-23T13:16:26.819Z,9.70
2023-02-23T13:20:34.965Z,9.70
2023-02-23T13:24:39.411Z,9.70
2023-02-23T13:28:49.384Z,9.60
2023-02-23T13:32:53.011Z,9.70
2023-02-23T13:36:58.258Z,9.60
2023-02-23T13:41:04.962Z,9.60
2023-02-23T13:45:17.963Z,9.60
2023-02-23T13:49:28.853Z,9.60
2023-02-23T13:53:41.026Z,9.60
2023-02-23T13:57:44.443Z,9.60
2023-02-23T14:01:48.977Z,9.50
2023-02-23T14:05:54.007Z,9.40
2023-02-23T14:10:00.990Z,9.30
2023-02-23T14:14:04.680Z,9.30
2023-02-23T14:18:22.507Z,9.30
2023-02-23T14:22:25.322Z,9.20
2023-02-23T14:26:40.207Z,9.20
2023-02-23T14:30:50.460Z,9.20
2023-02-23T14:34:57.019Z,9.10
2023-02-23T14:39:01.422Z,9.10
2023-02-23T14:43:25.596Z,9.10
2023-02-23T14:47:28.533Z,9.00
2023-02-23T14:51:42.428Z,9.00
2023-02-23T14:55:45.705Z,9.00
2023-02-23T14:59:54.945Z,9.00
2023-02-23T15:04:10.873Z,9.00
2023-02-23T15:08:15.387Z,9.00
2023-02-23T15:12:20.182Z,8.90
2023-02-23T15:16:29.561Z,8.90
2023-02-23T15:24:42.401Z,8.80
2023-02-23T15:28:47.255Z,8.70
2023-02-23T15:33:00.096Z,8.70
2023-02-23T15:37:04.641Z,8.70
2023-02-23T15:41:09.385Z,8.60
2023-02-23T15:45:15.909Z,8.60
2023-02-23T15:49:21.998Z,8.60
2023-02-23T15:53:30.180Z,8.60
2023-02-23T15:57:34.105Z,8.60
2023-02-23T16:01:42.848Z,8.50
2023-02-23T16:05:55.672Z,8.50
2023-02-23T16:10:05.058Z,8.50
2023-02-23T16:14:14.941Z,8.50
2023-02-23T16:18:19.676Z,8.50
2023-02-23T16:22:25.768Z,8.50
2023-02-23T16:26:30.135Z,8.50
2023-02-23T16:30:40.510Z,8.50
2023-02-23T16:34:48.828Z,8.50
2023-02-23T16:38:59.886Z,8.50
2023-02-23T16:43:03.124Z,8.50
2023-02-23T16:47:26.888Z,8.50
2023-02-23T16:51:29.862Z,8.50
2023-02-23T16:55:39.318Z,8.50
2023-02-23T16:59:42.279Z,8.50
2023-02-23T17:03:52.807Z,8.40
2023-02-23T17:07:58.228Z,8.40
2023-02-23T17:12:02.422Z,8.30
2023-02-23T17:16:06.988Z,8.30
2023-02-23T17:20:15.723Z,8.30
2023-02-23T17:24:19.152Z,8.30
2023-02-23T17:28:23.286Z,8.30
2023-02-23T17:32:26.141Z,8.20
2023-02-23T17:36:29.063Z,8.20
2023-02-23T17:40:36.265Z,8.20
2023-02-23T17:44:40.421Z,8.20
2023-02-23T17:48:44.724Z,8.20
2023-02-23T17:52:47.709Z,8.10
2023-02-23T17:56:50.530Z,8.10
2023-02-23T18:00:56.697Z,8.10
2023-02-23T18:04:59.679Z,8.10
2023-02-23T18:09:05.326Z,8.10
2023-02-23T18:13:08.101Z,8.10
2023-02-23T18:17:12.524Z,8.10
2023-02-23T18:21:16.081Z,8.10
2023-02-23T18:25:22.128Z,8.10
2023-02-23T18:29:24.916Z,8.10
2023-02-23T18:33:29.122Z,8.10
2023-02-23T18:37:31.952Z,8.10
2023-02-23T18:41:34.974Z,8.10
2023-02-23T18:45:38.111Z,8.00
2023-02-23T18:49:42.272Z,7.90
2023-02-23T18:53:45.109Z,7.80
2023-02-23T18:57:47.889Z,7.50
2023-02-23T19:01:50.713Z,7.40
2023-02-23T19:05:54.854Z,7.40
2023-02-23T19:10:00.758Z,7.20
2023-02-23T19:14:04.982Z,7.10
2023-02-23T19:18:07.784Z,7.00
2023-02-23T19:22:11.947Z,7.00
2023-02-23T19:26:15.235Z,6.90
2023-02-23T19:30:18.241Z,6.90
2023-02-23T19:34:21.048Z,6.80
2023-02-23T19:38:27.469Z,6.70
2023-02-23T19:42:30.772Z,6.70
2023-02-23T19:46:33.563Z,6.60
2023-02-23T19:50:36.815Z,6.50
2023-02-23T19:54:41.137Z,6.50
2023-02-23T19:58:46.566Z,6.40
2023-02-23T20:02:54.612Z,6.40
2023-02-23T20:06:57.451Z,6.40
2023-02-23T20:11:01.599Z,6.30
2023-02-23T20:15:04.793Z,6.30
2023-02-23T20:19:07.715Z,6.20
2023-02-23T20:23:11.988Z,6.20
2023-02-23T20:27:16.226Z,6.20
2023-02-23T20:31:20.981Z,6.20
2023-02-23T20:35:26.381Z,6.10
2023-02-23T20:39:29.282Z,6.10
2023-02-23T20:43:33.431Z,6.10
2023-02-23T20:47:36.319Z,6.10
2023-02-23T20:51:39.641Z,6.10
2023-02-23T20:55:42.533Z,6.10
2023-02-23T20:59:46.673Z,6.10
2023-02-23T21:03:51.601Z,6.10
2023-02-23T21:07:58.814Z,6.10
2023-02-23T21:12:03.668Z,6.00
2023-02-23T21:16:08.547Z,6.00
2023-02-23T21:20:12.968Z,6.00
2023-02-23T21:24:16.634Z,6.00
2023-02-23T21:28:20.780Z,6.00
2023-02-23T21:32:27.129Z,6.00
2023-02-23T21:36:30.014Z,6.00
2023-02-23T21:40:32.822Z,6.00
2023-02-23T21:44:35.699Z,6.00
2023-02-23T21:48:39.869Z,6.00
2023-02-23T21:52:43.875Z,6.00
2023-02-23T21:56:46.844Z,6.00
2023-02-23T22:00:50.571Z,5.90
2023-02-23T22:04:54.713Z,5.90
2023-02-23T22:08:58.072Z,5.90
2023-02-23T22:13:00.971Z,5.90
2023-02-23T22:17:04.125Z,5.90
2023-02-23T22:21:09.931Z,5.90
2023-02-23T22:25:13.016Z,5.80
2023-02-23T22:29:16.127Z,5.80
2023-02-23T22:33:19.825Z,5.80
2023-02-23T22:37:31.502Z,5.80
2023-02-23T22:41:42.236Z,5.80
2023-02-23T22:45:45.237Z,5.80
2023-02-23T22:49:48.121Z,5.80
2023-02-23T22:53:52.270Z,5.80
2023-02-23T22:57:55.722Z,5.80
2023-02-23T23:01:58.520Z,5.80
2023-02-23T23:06:02.962Z,5.80
2023-02-23T23:10:09.341Z,5.70
2023-02-23T23:14:12.883Z,5.70
2023-02-23T23:18:20.767Z,5.70
2023-02-23T23:22:25.129Z,5.60
2023-02-23T23:26:29.701Z,5.60
2023-02-23T23:30:35.316Z,5.60
2023-02-23T23:34:38.137Z,5.50
2023-02-23T23:38:42.332Z,5.50
2023-02-23T23:42:48.091Z,5.50
2023-02-23T23:46:52.743Z,5.40
2023-02-23T23:50:56.209Z,5.50
2023-02-23T23:54:59.155Z,5.40
2023-02-23T23:59:03.319Z,5.40
